sensor_id;sensor_type;location;lat;lon;timestamp;pressure;altitude;pressure_sealevel;temperature;humidity
14594;BME280;7383;52.354;9.756;2022-10-17T00:00:56;-12750.91;;;17.05;100.00
14594;BME280;7383;52.354;9.756;2022-10-17T00:03:22;-12750.81;;;17.05;100.00
14594;BME280;7383;52.354;9.756;2022-10-17T00:05:49;-12750.81;;;17.05;100.00
14594;BME280;7383;52.354;9.756;2022-10-17T00:08:18;-12750.47;;;17.03;100.00
14594;BME280;7383;52.354;9.756;2022-10-17T00:10:45;-12750.56;;;17.03;100.00
14594;BME280;7383;52.354;9.756;2022-10-17T00:13:20;-12749.97;;;17.00;100.00
14594;BME280;7383;52.354;9.756;2022-10-17T00:15:46;-12750.56;;;17.03;100.00
14594;BME280;7383;52.354;9.756;2022-10-17T00:18:12;-12750.31;;;17.02;100.00
14594;BME280;7383;52.354;9.756;2022-10-17T00:20:39;-12750.03;;;17.00;100.00
14594;BME280;7383;52.354;9.756;2022-10-17T00:23:06;-12749.78;;;16.99;100.00
14594;BME280;7383;52.354;9.756;2022-10-17T00:25:33;-12749.44;;;16.97;100.00
14594;BME280;7383;52.354;9.756;2022-10-17T00:28:01;-12749.25;;;16.96;100.00
14594;BME280;7383;52.354;9.756;2022-10-17T00:30:28;-12749.34;;;16.96;100.00
14594;BME280;7383;52.354;9.756;2022-10-17T00:32:57;-12749.44;;;16.97;100.00
14594;BME280;7383;52.354;9.756;2022-10-17T00:35:23;-12749.00;;;16.94;100.00
14594;BME280;7383;52.354;9.756;2022-10-17T00:37:49;-12748.41;;;16.91;100.00
14594;BME280;7383;52.354;9.756;2022-10-17T00:40:16;-12748.16;;;16.89;100.00
14594;BME280;7383;52.354;9.756;2022-10-17T00:42:44;-12747.78;;;16.87;100.00
14594;BME280;7383;52.354;9.756;2022-10-17T00:45:19;-12747.78;;;16.87;100.00
14594;BME280;7383;52.354;9.756;2022-10-17T00:47:50;-12747.72;;;16.87;100.00
14594;BME280;7383;52.354;9.756;2022-10-17T00:50:19;-12747.28;;;16.84;100.00
14594;BME280;7383;52.354;9.756;2022-10-17T00:52:46;-12746.31;;;16.79;100.00
14594;BME280;7383;52.354;9.756;2022-10-17T00:55:17;-12746.59;;;16.80;100.00
14594;BME280;7383;52.354;9.756;2022-10-17T00:57:47;-12746.41;;;16.79;100.00
14594;BME280;7383;52.354;9.756;2022-10-17T01:00:16;-12746.84;;;16.82;100.00
14594;BME280;7383;52.354;9.756;2022-10-17T01:02:43;-12747.09;;;16.83;100.00
14594;BME280;7383;52.354;9.756;2022-10-17T01:05:10;-12747.09;;;16.83;100.00
14594;BME280;7383;52.354;9.756;2022-10-17T01:07:38;-12747.44;;;16.85;100.00
14594;BME280;7383;52.354;9.756;2022-10-17T01:10:07;-12747.38;;;16.85;100.00
14594;BME280;7383;52.354;9.756;2022-10-17T01:12:41;-12747.53;;;16.86;100.00
14594;BME280;7383;52.354;9.756;2022-10-17T01:15:20;-12747.63;;;16.86;100.00
14594;BME280;7383;52.354;9.756;2022-10-17T01:17:54;-12747.78;;;16.87;100.00
14594;BME280;7383;52.354;9.756;2022-10-17T01:20:55;-12747.63;;;16.86;100.00
14594;BME280;7383;52.354;9.756;2022-10-17T01:23:53;-12747.38;;;16.85;100.00
14594;BME280;7383;52.354;9.756;2022-10-17T01:26:31;-12746.94;;;16.82;100.00
14594;BME280;7383;52.354;9.756;2022-10-17T01:29:23;-12746.66;;;16.81;100.00
14594;BME280;7383;52.354;9.756;2022-10-17T01:32:03;-12746.50;;;16.80;100.00
14594;BME280;7383;52.354;9.756;2022-10-17T01:34:38;-12746.31;;;16.79;100.00
14594;BME280;7383;52.354;9.756;2022-10-17T01:37:15;-12745.38;;;16.73;100.00
14594;BME280;7383;52.354;9.756;2022-10-17T01:39:48;-12745.47;;;16.73;100.00
14594;BME280;7383;52.354;9.756;2022-10-17T01:42:17;-12746.06;;;16.77;100.00
14594;BME280;7383;52.354;9.756;2022-10-17T01:44:51;-12745.97;;;16.77;100.00
14594;BME280;7383;52.354;9.756;2022-10-17T01:47:26;-12746.25;;;16.78;100.00
14594;BME280;7383;52.354;9.756;2022-10-17T01:49:57;-12746.25;;;16.78;100.00
14594;BME280;7383;52.354;9.756;2022-10-17T01:52:29;-12746.16;;;16.78;100.00
14594;BME280;7383;52.354;9.756;2022-10-17T01:55:02;-12745.91;;;16.76;100.00
14594;BME280;7383;52.354;9.756;2022-10-17T01:57:33;-12745.56;;;16.74;100.00
14594;BME280;7383;52.354;9.756;2022-10-17T02:00:03;-12745.63;;;16.75;100.00
14594;BME280;7383;52.354;9.756;2022-10-17T02:02:39;-12745.56;;;16.74;100.00
14594;BME280;7383;52.354;9.756;2022-10-17T02:05:07;-12745.56;;;16.74;100.00
14594;BME280;7383;52.354;9.756;2022-10-17T02:07:34;-12745.47;;;16.73;100.00
14594;BME280;7383;52.354;9.756;2022-10-17T02:10:01;-12745.28;;;16.72;100.00
14594;BME280;7383;52.354;9.756;2022-10-17T02:12:39;-12744.78;;;16.69;100.00
14594;BME280;7383;52.354;9.756;2022-10-17T02:15:21;-12744.69;;;16.69;100.00
14594;BME280;7383;52.354;9.756;2022-10-17T02:18:04;-12744.44;;;16.67;100.00
14594;BME280;7383;52.354;9.756;2022-10-17T02:20:39;-12744.25;;;16.66;100.00
14594;BME280;7383;52.354;9.756;2022-10-17T02:23:14;-12744.34;;;16.67;100.00
14594;BME280;7383;52.354;9.756;2022-10-17T02:25:50;-12744.06;;;16.65;100.00
14594;BME280;7383;52.354;9.756;2022-10-17T02:28:25;-12743.81;;;16.64;100.00
14594;BME280;7383;52.354;9.756;2022-10-17T02:31:04;-12744.00;;;16.65;100.00
14594;BME280;7383;52.354;9.756;2022-10-17T02:33:40;-12743.66;;;16.63;100.00
14594;BME280;7383;52.354;9.756;2022-10-17T02:36:13;-12743.72;;;16.63;100.00
14594;BME280;7383;52.354;9.756;2022-10-17T02:38:41;-12743.03;;;16.59;100.00
14594;BME280;7383;52.354;9.756;2022-10-17T02:41:10;-12743.03;;;16.59;100.00
14594;BME280;7383;52.354;9.756;2022-10-17T02:43:39;-12742.59;;;16.57;100.00
14594;BME280;7383;52.354;9.756;2022-10-17T02:46:10;-12742.16;;;16.54;100.00
14594;BME280;7383;52.354;9.756;2022-10-17T02:48:54;-12742.59;;;16.57;100.00
14594;BME280;7383;52.354;9.756;2022-10-17T02:51:28;-12742.34;;;16.55;100.00
14594;BME280;7383;52.354;9.756;2022-10-17T02:54:04;-12742.44;;;16.56;100.00
14594;BME280;7383;52.354;9.756;2022-10-17T02:56:48;-12742.59;;;16.57;100.00
14594;BME280;7383;52.354;9.756;2022-10-17T02:59:19;-12742.00;;;16.53;100.00
14594;BME280;7383;52.354;9.756;2022-10-17T03:01:47;-12742.09;;;16.54;100.00
14594;BME280;7383;52.354;9.756;2022-10-17T03:04:21;-12742.00;;;16.53;100.00
14594;BME280;7383;52.354;9.756;2022-10-17T03:06:48;-12741.75;;;16.52;100.00
14594;BME280;7383;52.354;9.756;2022-10-17T03:09:14;-12741.75;;;16.52;100.00
14594;BME280;7383;52.354;9.756;2022-10-17T03:11:45;-12741.66;;;16.51;100.00
14594;BME280;7383;52.354;9.756;2022-10-17T03:14:25;-12741.81;;;16.52;100.00
14594;BME280;7383;52.354;9.756;2022-10-17T03:16:52;-12741.56;;;16.51;100.00
14594;BME280;7383;52.354;9.756;2022-10-17T03:19:20;-12741.81;;;16.52;100.00
14594;BME280;7383;52.354;9.756;2022-10-17T03:21:49;-12741.66;;;16.51;100.00
14594;BME280;7383;52.354;9.756;2022-10-17T03:24:15;-12741.56;;;16.51;100.00
14594;BME280;7383;52.354;9.756;2022-10-17T03:26:42;-12741.38;;;16.50;100.00
14594;BME280;7383;52.354;9.756;2022-10-17T03:29:08;-12741.31;;;16.49;100.00
14594;BME280;7383;52.354;9.756;2022-10-17T03:31:35;-12741.03;;;16.48;100.00
14594;BME280;7383;52.354;9.756;2022-10-17T03:34:02;-12741.13;;;16.48;100.00
14594;BME280;7383;52.354;9.756;2022-10-17T03:36:29;-12740.88;;;16.47;100.00
14594;BME280;7383;52.354;9.756;2022-10-17T03:38:56;-12741.31;;;16.49;100.00
14594;BME280;7383;52.354;9.756;2022-10-17T03:41:23;-12740.44;;;16.44;100.00
14594;BME280;7383;52.354;9.756;2022-10-17T03:44:05;-12740.63;;;16.45;100.00
14594;BME280;7383;52.354;9.756;2022-10-17T03:46:32;-12740.53;;;16.45;100.00
14594;BME280;7383;52.354;9.756;2022-10-17T03:48:58;-12740.78;;;16.46;100.00
14594;BME280;7383;52.354;9.756;2022-10-17T03:51:35;-12740.69;;;16.46;100.00
14594;BME280;7383;52.354;9.756;2022-10-17T03:54:02;-12740.78;;;16.46;100.00
14594;BME280;7383;52.354;9.756;2022-10-17T03:56:29;-12740.78;;;16.46;100.00
14594;BME280;7383;52.354;9.756;2022-10-17T03:58:55;-12740.88;;;16.47;100.00
14594;BME280;7383;52.354;9.756;2022-10-17T04:01:22;-12741.03;;;16.48;100.00
14594;BME280;7383;52.354;9.756;2022-10-17T04:03:50;-12740.88;;;16.47;100.00
14594;BME280;7383;52.354;9.756;2022-10-17T04:06:19;-12741.38;;;16.50;100.00
14594;BME280;7383;52.354;9.756;2022-10-17T04:08:59;-12741.31;;;16.49;100.00
14594;BME280;7383;52.354;9.756;2022-10-17T04:11:26;-12741.56;;;16.51;100.00
14594;BME280;7383;52.354;9.756;2022-10-17T04:13:53;-12741.56;;;16.51;100.00
14594;BME280;7383;52.354;9.756;2022-10-17T04:16:20;-12741.47;;;16.50;100.00
14594;BME280;7383;52.354;9.756;2022-10-17T04:18:57;-12741.75;;;16.52;100.00
14594;BME280;7383;52.354;9.756;2022-10-17T04:21:49;-12741.91;;;16.53;100.00
14594;BME280;7383;52.354;9.756;2022-10-17T04:24:22;-12742.25;;;16.55;100.00
14594;BME280;7383;52.354;9.756;2022-10-17T04:27:14;-12742.59;;;16.57;100.00
14594;BME280;7383;52.354;9.756;2022-10-17T04:29:44;-12742.34;;;16.55;100.00
14594;BME280;7383;52.354;9.756;2022-10-17T04:32:29;-12742.69;;;16.57;100.00
14594;BME280;7383;52.354;9.756;2022-10-17T04:34:57;-12742.69;;;16.57;100.00
14594;BME280;7383;52.354;9.756;2022-10-17T04:37:24;-12742.78;;;16.58;100.00
14594;BME280;7383;52.354;9.756;2022-10-17T04:40:12;-12742.78;;;16.58;100.00
14594;BME280;7383;52.354;9.756;2022-10-17T04:42:42;-12742.94;;;16.59;100.00
14594;BME280;7383;52.354;9.756;2022-10-17T04:45:09;-12742.44;;;16.56;100.00
14594;BME280;7383;52.354;9.756;2022-10-17T04:47:35;-12742.78;;;16.58;100.00
14594;BME280;7383;52.354;9.756;2022-10-17T04:50:05;-12742.25;;;16.55;100.00
14594;BME280;7383;52.354;9.756;2022-10-17T04:52:34;-12742.00;;;16.53;100.00
14594;BME280;7383;52.354;9.756;2022-10-17T04:55:03;-12742.09;;;16.54;100.00
14594;BME280;7383;52.354;9.756;2022-10-17T04:57:39;-12742.34;;;16.55;100.00
14594;BME280;7383;52.354;9.756;2022-10-17T05:00:19;-12742.25;;;16.55;100.00
14594;BME280;7383;52.354;9.756;2022-10-17T05:02:46;-12741.91;;;16.53;100.00
14594;BME280;7383;52.354;9.756;2022-10-17T05:05:19;-12741.47;;;16.50;100.00
14594;BME280;7383;52.354;9.756;2022-10-17T05:08:00;-12741.38;;;16.50;100.00
14594;BME280;7383;52.354;9.756;2022-10-17T05:10:30;-12741.56;;;16.51;100.00
14594;BME280;7383;52.354;9.756;2022-10-17T05:12:58;-12741.75;;;16.52;100.00
14594;BME280;7383;52.354;9.756;2022-10-17T05:15:24;-12741.75;;;16.52;100.00
14594;BME280;7383;52.354;9.756;2022-10-17T05:17:53;-12742.00;;;16.53;100.00
14594;BME280;7383;52.354;9.756;2022-10-17T05:20:20;-12742.16;;;16.54;100.00
14594;BME280;7383;52.354;9.756;2022-10-17T05:22:47;-12741.91;;;16.53;100.00
14594;BME280;7383;52.354;9.756;2022-10-17T05:25:15;-12741.66;;;16.51;100.00
14594;BME280;7383;52.354;9.756;2022-10-17T05:27:45;-12741.91;;;16.53;100.00
14594;BME280;7383;52.354;9.756;2022-10-17T05:30:27;-12742.34;;;16.55;100.00
14594;BME280;7383;52.354;9.756;2022-10-17T05:32:54;-12742.44;;;16.56;100.00
14594;BME280;7383;52.354;9.756;2022-10-17T05:35:21;-12742.53;;;16.56;100.00
14594;BME280;7383;52.354;9.756;2022-10-17T05:37:50;-12742.44;;;16.56;100.00
14594;BME280;7383;52.354;9.756;2022-10-17T05:40:19;-12742.69;;;16.57;100.00
14594;BME280;7383;52.354;9.756;2022-10-17T05:42:46;-12742.59;;;16.57;100.00
14594;BME280;7383;52.354;9.756;2022-10-17T05:45:16;-12742.88;;;16.58;100.00
14594;BME280;7383;52.354;9.756;2022-10-17T05:47:45;-12743.03;;;16.59;100.00
14594;BME280;7383;52.354;9.756;2022-10-17T05:50:16;-12743.22;;;16.60;100.00
14594;BME280;7383;52.354;9.756;2022-10-17T05:55:43;-12743.81;;;16.64;100.00
14594;BME280;7383;52.354;9.756;2022-10-17T05:58:10;-12744.84;;;16.70;100.00
14594;BME280;7383;52.354;9.756;2022-10-17T06:00:42;-12745.97;;;16.77;100.00
14594;BME280;7383;52.354;9.756;2022-10-17T06:03:22;-12746.06;;;16.77;100.00
14594;BME280;7383;52.354;9.756;2022-10-17T06:05:54;-12745.91;;;16.76;100.00
14594;BME280;7383;52.354;9.756;2022-10-17T06:08:24;-12745.63;;;16.75;100.00
14594;BME280;7383;52.354;9.756;2022-10-17T06:10:53;-12745.63;;;16.75;100.00
14594;BME280;7383;52.354;9.756;2022-10-17T06:13:20;-12745.81;;;16.76;100.00
14594;BME280;7383;52.354;9.756;2022-10-17T06:15:46;-12745.97;;;16.77;100.00
14594;BME280;7383;52.354;9.756;2022-10-17T06:21:31;-12746.06;;;16.77;100.00
14594;BME280;7383;52.354;9.756;2022-10-17T06:24:00;-12746.50;;;16.80;100.00
14594;BME280;7383;52.354;9.756;2022-10-17T06:26:27;-12746.66;;;16.81;100.00
14594;BME280;7383;52.354;9.756;2022-10-17T06:28:53;-12746.75;;;16.81;100.00
14594;BME280;7383;52.354;9.756;2022-10-17T06:31:20;-12747.00;;;16.83;100.00
14594;BME280;7383;52.354;9.756;2022-10-17T06:33:47;-12747.19;;;16.84;100.00
14594;BME280;7383;52.354;9.756;2022-10-17T06:36:16;-12747.63;;;16.86;100.00
14594;BME280;7383;52.354;9.756;2022-10-17T06:38:47;-12748.56;;;16.92;100.00
14594;BME280;7383;52.354;9.756;2022-10-17T06:41:19;-12749.00;;;16.94;100.00
14594;BME280;7383;52.354;9.756;2022-10-17T06:43:52;-12749.19;;;16.95;100.00
14594;BME280;7383;52.354;9.756;2022-10-17T06:46:23;-12749.44;;;16.97;100.00
14594;BME280;7383;52.354;9.756;2022-10-17T06:48:56;-12749.88;;;16.99;100.00
14594;BME280;7383;52.354;9.756;2022-10-17T06:51:22;-12750.47;;;17.03;100.00
14594;BME280;7383;52.354;9.756;2022-10-17T06:53:50;-12750.91;;;17.05;100.00
14594;BME280;7383;52.354;9.756;2022-10-17T06:56:20;-12751.09;;;17.06;100.00
14594;BME280;7383;52.354;9.756;2022-10-17T06:58:52;-12751.69;;;17.10;100.00
14594;BME280;7383;52.354;9.756;2022-10-17T07:01:22;-12752.28;;;17.13;100.00
14594;BME280;7383;52.354;9.756;2022-10-17T07:03:48;-12752.72;;;17.16;100.00
14594;BME280;7383;52.354;9.756;2022-10-17T07:06:18;-12753.06;;;17.18;100.00
14594;BME280;7383;52.354;9.756;2022-10-17T07:08:47;-12753.50;;;17.20;100.00
14594;BME280;7383;52.354;9.756;2022-10-17T07:11:38;-12754.53;;;17.27;100.00
14594;BME280;7383;52.354;9.756;2022-10-17T07:17:07;-12756.00;;;17.35;100.00
14594;BME280;7383;52.354;9.756;2022-10-17T07:19:37;-12756.44;;;17.38;100.00
14594;BME280;7383;52.354;9.756;2022-10-17T07:22:07;-12757.38;;;17.43;100.00
14594;BME280;7383;52.354;9.756;2022-10-17T07:24:33;-12758.34;;;17.49;100.00
14594;BME280;7383;52.354;9.756;2022-10-17T07:27:01;-12759.81;;;17.57;100.00
14594;BME280;7383;52.354;9.756;2022-10-17T07:29:28;-12761.19;;;17.65;100.00
14594;BME280;7383;52.354;9.756;2022-10-17T07:31:54;-12762.66;;;17.74;100.00
14594;BME280;7383;52.354;9.756;2022-10-17T07:34:21;-12763.69;;;17.80;100.00
14594;BME280;7383;52.354;9.756;2022-10-17T07:37:00;-12764.63;;;17.86;100.00
14594;BME280;7383;52.354;9.756;2022-10-17T07:39:37;-12765.25;;;17.89;100.00
14594;BME280;7383;52.354;9.756;2022-10-17T07:42:05;-12766.28;;;17.95;100.00
14594;BME280;7383;52.354;9.756;2022-10-17T07:44:34;-12766.72;;;17.98;100.00
14594;BME280;7383;52.354;9.756;2022-10-17T07:47:01;-12767.84;;;18.04;100.00
14594;BME280;7383;52.354;9.756;2022-10-17T07:49:30;-12768.00;;;18.05;100.00
14594;BME280;7383;52.354;9.756;2022-10-17T07:51:57;-12768.59;;;18.09;100.00
14594;BME280;7383;52.354;9.756;2022-10-17T07:54:24;-12768.69;;;18.09;100.00
14594;BME280;7383;52.354;9.756;2022-10-17T07:56:51;-12769.22;;;18.12;100.00
14594;BME280;7383;52.354;9.756;2022-10-17T07:59:18;-12769.66;;;18.15;100.00
14594;BME280;7383;52.354;9.756;2022-10-17T08:02:00;-12770.16;;;18.18;100.00
14594;BME280;7383;52.354;9.756;2022-10-17T08:04:27;-12770.25;;;18.18;100.00
14594;BME280;7383;52.354;9.756;2022-10-17T08:06:54;-12770.94;;;18.23;100.00
14594;BME280;7383;52.354;9.756;2022-10-17T08:09:21;-12771.53;;;18.26;100.00
14594;BME280;7383;52.354;9.756;2022-10-17T08:11:49;-12772.22;;;18.30;100.00
14594;BME280;7383;52.354;9.756;2022-10-17T08:14:20;-12773.09;;;18.35;100.00
14594;BME280;7383;52.354;9.756;2022-10-17T08:16:55;-12773.69;;;18.39;100.00
14594;BME280;7383;52.354;9.756;2022-10-17T08:19:22;-12774.66;;;18.44;100.00
14594;BME280;7383;52.354;9.756;2022-10-17T08:21:49;-12775.41;;;18.49;100.00
14594;BME280;7383;52.354;9.756;2022-10-17T08:24:16;-12776.47;;;18.55;100.00
14594;BME280;7383;52.354;9.756;2022-10-17T08:26:43;-12777.16;;;18.59;100.00
14594;BME280;7383;52.354;9.756;2022-10-17T08:29:14;-12778.00;;;18.64;100.00
14594;BME280;7383;52.354;9.756;2022-10-17T08:31:44;-12778.69;;;18.68;100.00
14594;BME280;7383;52.354;9.756;2022-10-17T08:34:13;-12779.22;;;18.71;100.00
14594;BME280;7383;52.354;9.756;2022-10-17T08:36:40;-12779.66;;;18.74;100.00
14594;BME280;7383;52.354;9.756;2022-10-17T08:39:07;-12780.25;;;18.77;100.00
14594;BME280;7383;52.354;9.756;2022-10-17T08:41:51;-12781.28;;;18.83;100.00
14594;BME280;7383;52.354;9.756;2022-10-17T08:44:45;-12782.06;;;18.88;100.00
14594;BME280;7383;52.354;9.756;2022-10-17T08:47:26;-12782.84;;;18.92;100.00
14594;BME280;7383;52.354;9.756;2022-10-17T08:50:10;-12783.19;;;18.94;100.00
14594;BME280;7383;52.354;9.756;2022-10-17T08:52:52;-12783.88;;;18.98;100.00
14594;BME280;7383;52.354;9.756;2022-10-17T08:55:32;-12784.38;;;19.01;100.00
14594;BME280;7383;52.354;9.756;2022-10-17T09:01:06;-12786.09;;;19.11;100.00
14594;BME280;7383;52.354;9.756;2022-10-17T09:03:48;-12786.63;;;19.14;100.00
14594;BME280;7383;52.354;9.756;2022-10-17T09:06:34;-12787.47;;;19.20;100.00
14594;BME280;7383;52.354;9.756;2022-10-17T09:09:15;-12788.09;;;19.23;100.00
14594;BME280;7383;52.354;9.756;2022-10-17T09:12:01;-12788.88;;;19.28;100.00
14594;BME280;7383;52.354;9.756;2022-10-17T09:14:59;-12789.53;;;19.32;100.00
14594;BME280;7383;52.354;9.756;2022-10-17T09:17:36;-12790.22;;;19.36;100.00
14594;BME280;7383;52.354;9.756;2022-10-17T09:20:11;-12791.53;;;19.43;100.00
14594;BME280;7383;52.354;9.756;2022-10-17T09:22:43;-12793.00;;;19.52;100.00
14594;BME280;7383;52.354;9.756;2022-10-17T09:25:15;-12792.91;;;19.51;100.00
14594;BME280;7383;52.354;9.756;2022-10-17T09:27:45;-12793.50;;;19.55;100.00
14594;BME280;7383;52.354;9.756;2022-10-17T09:30:23;-12794.19;;;19.59;100.00
14594;BME280;7383;52.354;9.756;2022-10-17T09:32:52;-12794.38;;;19.60;100.00
14594;BME280;7383;52.354;9.756;2022-10-17T09:35:20;-12795.06;;;19.64;100.00
14594;BME280;7383;52.354;9.756;2022-10-17T09:37:48;-12795.56;;;19.67;100.00
14594;BME280;7383;52.354;9.756;2022-10-17T09:40:18;-12796.25;;;19.71;100.00
14594;BME280;7383;52.354;9.756;2022-10-17T09:42:48;-12796.94;;;19.75;100.00
14594;BME280;7383;52.354;9.756;2022-10-17T09:45:18;-12797.97;;;19.81;100.00
14594;BME280;7383;52.354;9.756;2022-10-17T09:47:54;-12799.19;;;19.88;100.00
14594;BME280;7383;52.354;9.756;2022-10-17T09:50:30;-12800.72;;;19.97;100.00
14594;BME280;7383;52.354;9.756;2022-10-17T09:53:02;-12801.94;;;20.04;100.00
14594;BME280;7383;52.354;9.756;2022-10-17T09:55:39;-12802.97;;;20.10;100.00
14594;BME280;7383;52.354;9.756;2022-10-17T09:58:10;-12803.81;;;20.15;100.00
14594;BME280;7383;52.354;9.756;2022-10-17T10:00:39;-12804.78;;;20.21;100.00
14594;BME280;7383;52.354;9.756;2022-10-17T10:03:12;-12805.13;;;20.23;100.00
14594;BME280;7383;52.354;9.756;2022-10-17T10:06:03;-12805.91;;;20.28;100.00
14594;BME280;7383;52.354;9.756;2022-10-17T10:08:37;-12806.06;;;20.29;100.00
14594;BME280;7383;52.354;9.756;2022-10-17T10:11:18;-12807.97;;;20.40;100.00
14594;BME280;7383;52.354;9.756;2022-10-17T10:13:52;-12808.91;;;20.45;100.00
14594;BME280;7383;52.354;9.756;2022-10-17T10:16:22;-12811.06;;;20.58;100.00
14594;BME280;7383;52.354;9.756;2022-10-17T10:18:50;-12813.19;;;20.71;100.00
14594;BME280;7383;52.354;9.756;2022-10-17T10:21:20;-12814.56;;;20.79;100.00
14594;BME280;7383;52.354;9.756;2022-10-17T10:24:03;-12816.38;;;20.89;100.00
14594;BME280;7383;52.354;9.756;2022-10-17T10:26:34;-12817.84;;;20.98;100.00
14594;BME280;7383;52.354;9.756;2022-10-17T10:29:05;-12818.78;;;21.03;100.00
14594;BME280;7383;52.354;9.756;2022-10-17T10:31:34;-12819.81;;;21.09;100.00
14594;BME280;7383;52.354;9.756;2022-10-17T10:34:15;-12821.09;;;21.17;100.00
14594;BME280;7383;52.354;9.756;2022-10-17T10:36:52;-12821.44;;;21.19;100.00
14594;BME280;7383;52.354;9.756;2022-10-17T10:39:34;-12822.47;;;21.25;100.00
14594;BME280;7383;52.354;9.756;2022-10-17T10:42:04;-12823.41;;;21.31;100.00
14594;BME280;7383;52.354;9.756;2022-10-17T10:44:31;-12824.34;;;21.36;100.00
14594;BME280;7383;52.354;9.756;2022-10-17T10:47:21;-12826.31;;;21.48;100.00
14594;BME280;7383;52.354;9.756;2022-10-17T10:50:05;-12827.19;;;21.53;100.00
14594;BME280;7383;52.354;9.756;2022-10-17T10:52:42;-12828.03;;;21.58;100.00
14594;BME280;7383;52.354;9.756;2022-10-17T10:55:20;-12829.06;;;21.64;100.00
14594;BME280;7383;52.354;9.756;2022-10-17T10:57:59;-12829.66;;;21.68;100.00
14594;BME280;7383;52.354;9.756;2022-10-17T11:00:28;-12828.81;;;21.63;100.00
14594;BME280;7383;52.354;9.756;2022-10-17T11:03:08;-12829.41;;;21.66;100.00
14594;BME280;7383;52.354;9.756;2022-10-17T11:05:41;-12831.03;;;21.76;100.00
14594;BME280;7383;52.354;9.756;2022-10-17T11:08:18;-12833.94;;;21.93;100.00
14594;BME280;7383;52.354;9.756;2022-10-17T11:10:58;-12837.38;;;22.13;100.00
14594;BME280;7383;52.354;9.756;2022-10-17T11:13:36;-12839.94;;;22.28;100.00
14594;BME280;7383;52.354;9.756;2022-10-17T11:16:18;-12844.47;;;22.55;100.00
14594;BME280;7383;52.354;9.756;2022-10-17T11:18:53;-12844.13;;;22.53;100.00
14594;BME280;7383;52.354;9.756;2022-10-17T11:21:27;-12841.41;;;22.37;100.00
14594;BME280;7383;52.354;9.756;2022-10-17T11:24:08;-12839.78;;;22.27;100.00
14594;BME280;7383;52.354;9.756;2022-10-17T11:26:40;-12838.84;;;22.22;100.00
14594;BME280;7383;52.354;9.756;2022-10-17T11:29:18;-12838.22;;;22.18;100.00
14594;BME280;7383;52.354;9.756;2022-10-17T11:31:49;-12837.28;;;22.13;100.00
14594;BME280;7383;52.354;9.756;2022-10-17T11:34:20;-12835.91;;;22.04;100.00
14594;BME280;7383;52.354;9.756;2022-10-17T11:36:55;-12835.31;;;22.01;100.00
14594;BME280;7383;52.354;9.756;2022-10-17T11:39:29;-12835.50;;;22.02;100.00
14594;BME280;7383;52.354;9.756;2022-10-17T11:42:02;-12835.84;;;22.04;100.00
14594;BME280;7383;52.354;9.756;2022-10-17T11:44:34;-12835.75;;;22.03;100.00
14594;BME280;7383;52.354;9.756;2022-10-17T11:47:10;-12836.09;;;22.05;100.00
14594;BME280;7383;52.354;9.756;2022-10-17T11:49:42;-12835.84;;;22.04;100.00
14594;BME280;7383;52.354;9.756;2022-10-17T11:52:26;-12836.00;;;22.05;100.00
14594;BME280;7383;52.354;9.756;2022-10-17T11:55:01;-12836.19;;;22.06;100.00
14594;BME280;7383;52.354;9.756;2022-10-17T11:57:39;-12836.19;;;22.06;100.00
14594;BME280;7383;52.354;9.756;2022-10-17T12:00:28;-12836.34;;;22.07;100.00
14594;BME280;7383;52.354;9.756;2022-10-17T12:03:06;-12836.34;;;22.07;100.00
14594;BME280;7383;52.354;9.756;2022-10-17T12:05:45;-12836.59;;;22.08;100.00
14594;BME280;7383;52.354;9.756;2022-10-17T12:08:24;-12836.78;;;22.10;100.00
14594;BME280;7383;52.354;9.756;2022-10-17T12:10:58;-12836.44;;;22.07;100.00
14594;BME280;7383;52.354;9.756;2022-10-17T12:13:45;-12836.94;;;22.11;100.00
14594;BME280;7383;52.354;9.756;2022-10-17T12:19:20;-12836.09;;;22.05;100.00
14594;BME280;7383;52.354;9.756;2022-10-17T12:21:56;-12835.75;;;22.03;100.00
14594;BME280;7383;52.354;9.756;2022-10-17T12:24:32;-12836.00;;;22.05;100.00
14594;BME280;7383;52.354;9.756;2022-10-17T12:27:30;-12836.09;;;22.05;100.00
14594;BME280;7383;52.354;9.756;2022-10-17T12:30:06;-12836.09;;;22.05;100.00
14594;BME280;7383;52.354;9.756;2022-10-17T12:33:02;-12836.59;;;22.08;100.00
14594;BME280;7383;52.354;9.756;2022-10-17T12:35:31;-12837.13;;;22.12;100.00
14594;BME280;7383;52.354;9.756;2022-10-17T12:38:26;-12836.78;;;22.10;100.00
14594;BME280;7383;52.354;9.756;2022-10-17T12:41:04;-12836.59;;;22.08;100.00
14594;BME280;7383;52.354;9.756;2022-10-17T12:43:36;-12836.53;;;22.08;100.00
14594;BME280;7383;52.354;9.756;2022-10-17T12:46:03;-12836.88;;;22.10;100.00
14594;BME280;7383;52.354;9.756;2022-10-17T12:55:05;-12839.25;;;22.24;100.00
14594;BME280;7383;52.354;9.756;2022-10-17T12:57:42;-12839.59;;;22.26;100.00
14594;BME280;7383;52.354;9.756;2022-10-17T13:00:21;-12839.94;;;22.28;100.00
14594;BME280;7383;52.354;9.756;2022-10-17T13:02:54;-12839.88;;;22.28;100.00
14594;BME280;7383;52.354;9.756;2022-10-17T13:05:26;-12839.59;;;22.26;100.00
14594;BME280;7383;52.354;9.756;2022-10-17T13:07:59;-12839.09;;;22.23;100.00
14594;BME280;7383;52.354;9.756;2022-10-17T13:10:28;-12838.56;;;22.20;100.00
14594;BME280;7383;52.354;9.756;2022-10-17T13:13:05;-12838.75;;;22.21;100.00
14594;BME280;7383;52.354;9.756;2022-10-17T13:15:49;-12838.50;;;22.20;100.00
14594;BME280;7383;52.354;9.756;2022-10-17T13:18:21;-12837.97;;;22.17;100.00
14594;BME280;7383;52.354;9.756;2022-10-17T13:20:59;-12837.47;;;22.14;100.00
14594;BME280;7383;52.354;9.756;2022-10-17T13:26:07;-12836.25;;;22.06;100.00
14594;BME280;7383;52.354;9.756;2022-10-17T13:28:37;-12836.00;;;22.05;100.00
14594;BME280;7383;52.354;9.756;2022-10-17T13:31:05;-12835.50;;;22.02;100.00
14594;BME280;7383;52.354;9.756;2022-10-17T13:33:35;-12835.59;;;22.02;100.00
14594;BME280;7383;52.354;9.756;2022-10-17T13:36:06;-12835.75;;;22.03;100.00
14594;BME280;7383;52.354;9.756;2022-10-17T13:38:34;-12835.91;;;22.04;100.00
14594;BME280;7383;52.354;9.756;2022-10-17T13:41:02;-12836.09;;;22.05;100.00
14594;BME280;7383;52.354;9.756;2022-10-17T13:43:30;-12836.00;;;22.05;100.00